sensor_id;sensor_type;location;lat;lon;timestamp;P1;durP1;ratioP1;P2;durP2;ratioP2
75152;SDS011;63734;45.218;36.708;2023-04-03T00:00:29;13.05;;;7.07;;
75152;SDS011;63734;45.218;36.708;2023-04-03T00:02:56;18.83;;;8.52;;
75152;SDS011;63734;45.218;36.708;2023-04-03T00:05:22;13.32;;;6.80;;
75152;SDS011;63734;45.218;36.708;2023-04-03T00:07:48;17.05;;;8.75;;
75152;SDS011;63734;45.218;36.708;2023-04-03T00:10:15;17.70;;;8.82;;
75152;SDS011;63734;45.218;36.708;2023-04-03T00:12:41;19.27;;;7.50;;
75152;SDS011;63734;45.218;36.708;2023-04-03T00:15:07;12.25;;;6.80;;
75152;SDS011;63734;45.218;36.708;2023-04-03T00:17:34;13.77;;;6.72;;
75152;SDS011;63734;45.218;36.708;2023-04-03T00:20:00;14.80;;;8.15;;
75152;SDS011;63734;45.218;36.708;2023-04-03T00:22:26;12.75;;;7.53;;
75152;SDS011;63734;45.218;36.708;2023-04-03T00:24:54;20.13;;;9.27;;
75152;SDS011;63734;45.218;36.708;2023-04-03T00:27:20;14.77;;;8.02;;
75152;SDS011;63734;45.218;36.708;2023-04-03T00:29:47;22.98;;;9.55;;
75152;SDS011;63734;45.218;36.708;2023-04-03T00:32:13;14.82;;;7.68;;
75152;SDS011;63734;45.218;36.708;2023-04-03T00:34:39;10.88;;;5.85;;
75152;SDS011;63734;45.218;36.708;2023-04-03T00:37:05;19.90;;;10.20;;
75152;SDS011;63734;45.218;36.708;2023-04-03T00:39:31;14.02;;;8.40;;
75152;SDS011;63734;45.218;36.708;2023-04-03T00:41:57;12.65;;;6.90;;
75152;SDS011;63734;45.218;36.708;2023-04-03T00:46:58;20.08;;;10.20;;
75152;SDS011;63734;45.218;36.708;2023-04-03T00:49:25;15.57;;;7.38;;
75152;SDS011;63734;45.218;36.708;2023-04-03T00:51:52;16.10;;;7.28;;
75152;SDS011;63734;45.218;36.708;2023-04-03T00:54:19;22.75;;;10.23;;
75152;SDS011;63734;45.218;36.708;2023-04-03T01:00:40;20.92;;;8.30;;
75152;SDS011;63734;45.218;36.708;2023-04-03T01:03:10;19.20;;;9.38;;
75152;SDS011;63734;45.218;36.708;2023-04-03T01:05:38;13.68;;;7.45;;
75152;SDS011;63734;45.218;36.708;2023-04-03T01:11:01;14.18;;;7.63;;
75152;SDS011;63734;45.218;36.708;2023-04-03T01:13:28;12.55;;;7.20;;
75152;SDS011;63734;45.218;36.708;2023-04-03T01:15:56;15.55;;;7.95;;
75152;SDS011;63734;45.218;36.708;2023-04-03T01:18:25;14.80;;;6.68;;
75152;SDS011;63734;45.218;36.708;2023-04-03T01:23:27;13.65;;;7.53;;
75152;SDS011;63734;45.218;36.708;2023-04-03T01:25:59;19.02;;;8.13;;
75152;SDS011;63734;45.218;36.708;2023-04-03T01:28:30;17.75;;;9.18;;
75152;SDS011;63734;45.218;36.708;2023-04-03T01:33:46;10.63;;;7.25;;
75152;SDS011;63734;45.218;36.708;2023-04-03T01:39:10;22.00;;;8.35;;
75152;SDS011;63734;45.218;36.708;2023-04-03T01:41:36;11.63;;;7.03;;
75152;SDS011;63734;45.218;36.708;2023-04-03T01:44:10;20.92;;;7.68;;
75152;SDS011;63734;45.218;36.708;2023-04-03T01:46:36;16.63;;;6.78;;
75152;SDS011;63734;45.218;36.708;2023-04-03T01:49:03;14.38;;;7.72;;
75152;SDS011;63734;45.218;36.708;2023-04-03T01:51:29;13.05;;;6.75;;
75152;SDS011;63734;45.218;36.708;2023-04-03T01:53:56;16.90;;;7.85;;
75152;SDS011;63734;45.218;36.708;2023-04-03T01:56:22;17.90;;;8.05;;
75152;SDS011;63734;45.218;36.708;2023-04-03T01:58:48;17.23;;;7.90;;
75152;SDS011;63734;45.218;36.708;2023-04-03T02:01:15;17.38;;;8.45;;
75152;SDS011;63734;45.218;36.708;2023-04-03T02:03:42;20.65;;;8.23;;
75152;SDS011;63734;45.218;36.708;2023-04-03T02:06:08;17.58;;;7.88;;
75152;SDS011;63734;45.218;36.708;2023-04-03T02:08:34;15.27;;;8.52;;
75152;SDS011;63734;45.218;36.708;2023-04-03T02:11:00;16.95;;;8.32;;
75152;SDS011;63734;45.218;36.708;2023-04-03T02:16:25;9.13;;;5.60;;
75152;SDS011;63734;45.218;36.708;2023-04-03T02:18:51;19.35;;;8.23;;
75152;SDS011;63734;45.218;36.708;2023-04-03T02:21:17;16.73;;;7.30;;
75152;SDS011;63734;45.218;36.708;2023-04-03T02:23:43;13.32;;;5.00;;
75152;SDS011;63734;45.218;36.708;2023-04-03T02:26:12;13.73;;;6.30;;
75152;SDS011;63734;45.218;36.708;2023-04-03T02:28:40;13.40;;;6.57;;
75152;SDS011;63734;45.218;36.708;2023-04-03T02:31:09;16.50;;;7.20;;
75152;SDS011;63734;45.218;36.708;2023-04-03T02:33:37;12.65;;;7.13;;
75152;SDS011;63734;45.218;36.708;2023-04-03T02:36:06;17.52;;;7.30;;
75152;SDS011;63734;45.218;36.708;2023-04-03T02:38:33;14.18;;;5.97;;
75152;SDS011;63734;45.218;36.708;2023-04-03T02:41:07;17.48;;;7.53;;
75152;SDS011;63734;45.218;36.708;2023-04-03T02:43:36;13.70;;;7.45;;
75152;SDS011;63734;45.218;36.708;2023-04-03T02:46:04;17.70;;;6.30;;
75152;SDS011;63734;45.218;36.708;2023-04-03T02:48:30;16.38;;;8.48;;
75152;SDS011;63734;45.218;36.708;2023-04-03T02:50:56;15.07;;;7.15;;
75152;SDS011;63734;45.218;36.708;2023-04-03T02:53:22;18.45;;;7.95;;
75152;SDS011;63734;45.218;36.708;2023-04-03T02:55:50;20.17;;;6.75;;
75152;SDS011;63734;45.218;36.708;2023-04-03T03:01:21;19.15;;;7.78;;
75152;SDS011;63734;45.218;36.708;2023-04-03T03:03:47;17.63;;;7.20;;
75152;SDS011;63734;45.218;36.708;2023-04-03T03:06:14;15.15;;;7.22;;
75152;SDS011;63734;45.218;36.708;2023-04-03T03:08:42;14.02;;;7.13;;
75152;SDS011;63734;45.218;36.708;2023-04-03T03:11:09;17.00;;;8.18;;
75152;SDS011;63734;45.218;36.708;2023-04-03T03:13:35;18.27;;;7.63;;
75152;SDS011;63734;45.218;36.708;2023-04-03T03:16:01;13.43;;;7.40;;
75152;SDS011;63734;45.218;36.708;2023-04-03T03:18:28;14.95;;;7.75;;
75152;SDS011;63734;45.218;36.708;2023-04-03T03:20:55;12.02;;;6.97;;
75152;SDS011;63734;45.218;36.708;2023-04-03T03:23:23;15.88;;;6.38;;
75152;SDS011;63734;45.218;36.708;2023-04-03T03:26:01;17.90;;;7.90;;
75152;SDS011;63734;45.218;36.708;2023-04-03T03:28:29;14.60;;;7.35;;
75152;SDS011;63734;45.218;36.708;2023-04-03T03:30:56;10.88;;;5.32;;
75152;SDS011;63734;45.218;36.708;2023-04-03T03:33:41;15.77;;;6.63;;
75152;SDS011;63734;45.218;36.708;2023-04-03T03:38:35;13.27;;;6.90;;
75152;SDS011;63734;45.218;36.708;2023-04-03T03:41:01;20.15;;;7.25;;
75152;SDS011;63734;45.218;36.708;2023-04-03T03:43:28;14.30;;;7.28;;
75152;SDS011;63734;45.218;36.708;2023-04-03T03:45:55;19.05;;;7.72;;
75152;SDS011;63734;45.218;36.708;2023-04-03T03:48:23;16.52;;;8.10;;
75152;SDS011;63734;45.218;36.708;2023-04-03T03:50:49;23.30;;;7.82;;
75152;SDS011;63734;45.218;36.708;2023-04-03T03:53:17;16.60;;;6.63;;
75152;SDS011;63734;45.218;36.708;2023-04-03T03:55:45;13.88;;;5.93;;
75152;SDS011;63734;45.218;36.708;2023-04-03T03:58:11;13.77;;;7.22;;
75152;SDS011;63734;45.218;36.708;2023-04-03T04:00:37;12.45;;;5.85;;
75152;SDS011;63734;45.218;36.708;2023-04-03T04:03:03;20.52;;;7.78;;
75152;SDS011;63734;45.218;36.708;2023-04-03T04:05:30;20.67;;;8.63;;
75152;SDS011;63734;45.218;36.708;2023-04-03T04:07:58;18.08;;;7.80;;
75152;SDS011;63734;45.218;36.708;2023-04-03T04:13:38;16.75;;;8.88;;
75152;SDS011;63734;45.218;36.708;2023-04-03T04:16:07;21.30;;;9.15;;
75152;SDS011;63734;45.218;36.708;2023-04-03T04:18:33;23.27;;;11.32;;
75152;SDS011;63734;45.218;36.708;2023-04-03T04:20:59;17.48;;;7.15;;
75152;SDS011;63734;45.218;36.708;2023-04-03T04:23:26;12.75;;;7.22;;
75152;SDS011;63734;45.218;36.708;2023-04-03T04:25:52;16.95;;;7.88;;
75152;SDS011;63734;45.218;36.708;2023-04-03T04:28:19;14.48;;;6.43;;
75152;SDS011;63734;45.218;36.708;2023-04-03T04:30:49;14.60;;;7.00;;
75152;SDS011;63734;45.218;36.708;2023-04-03T04:33:17;14.32;;;7.20;;
75152;SDS011;63734;45.218;36.708;2023-04-03T04:35:44;13.70;;;6.68;;
75152;SDS011;63734;45.218;36.708;2023-04-03T04:38:12;13.18;;;4.78;;
75152;SDS011;63734;45.218;36.708;2023-04-03T04:40:38;12.50;;;5.65;;
75152;SDS011;63734;45.218;36.708;2023-04-03T04:43:05;11.85;;;5.80;;
75152;SDS011;63734;45.218;36.708;2023-04-03T04:45:32;10.85;;;6.03;;
75152;SDS011;63734;45.218;36.708;2023-04-03T04:47:58;11.50;;;5.28;;
75152;SDS011;63734;45.218;36.708;2023-04-03T04:50:25;9.57;;;4.78;;
75152;SDS011;63734;45.218;36.708;2023-04-03T04:52:52;9.82;;;5.18;;
75152;SDS011;63734;45.218;36.708;2023-04-03T04:55:19;10.95;;;5.07;;
75152;SDS011;63734;45.218;36.708;2023-04-03T04:57:46;12.65;;;5.45;;
75152;SDS011;63734;45.218;36.708;2023-04-03T05:00:12;13.38;;;5.47;;
75152;SDS011;63734;45.218;36.708;2023-04-03T05:02:38;7.32;;;4.50;;
75152;SDS011;63734;45.218;36.708;2023-04-03T05:05:05;9.73;;;5.13;;
75152;SDS011;63734;45.218;36.708;2023-04-03T05:07:32;6.30;;;3.85;;
75152;SDS011;63734;45.218;36.708;2023-04-03T05:10:00;10.05;;;4.97;;
75152;SDS011;63734;45.218;36.708;2023-04-03T05:12:26;7.10;;;4.93;;
75152;SDS011;63734;45.218;36.708;2023-04-03T05:14:57;9.13;;;3.75;;
75152;SDS011;63734;45.218;36.708;2023-04-03T05:17:25;9.07;;;4.22;;
75152;SDS011;63734;45.218;36.708;2023-04-03T05:19:54;8.82;;;4.03;;
75152;SDS011;63734;45.218;36.708;2023-04-03T05:22:21;9.77;;;3.97;;
75152;SDS011;63734;45.218;36.708;2023-04-03T05:24:50;8.73;;;3.30;;
75152;SDS011;63734;45.218;36.708;2023-04-03T05:27:16;7.53;;;4.20;;
75152;SDS011;63734;45.218;36.708;2023-04-03T05:29:46;6.53;;;3.80;;
75152;SDS011;63734;45.218;36.708;2023-04-03T05:32:18;11.05;;;4.63;;
75152;SDS011;63734;45.218;36.708;2023-04-03T05:35:01;7.25;;;4.07;;
75152;SDS011;63734;45.218;36.708;2023-04-03T05:37:27;11.50;;;4.22;;
75152;SDS011;63734;45.218;36.708;2023-04-03T05:39:53;6.53;;;3.95;;
75152;SDS011;63734;45.218;36.708;2023-04-03T05:45:39;7.07;;;3.35;;
75152;SDS011;63734;45.218;36.708;2023-04-03T05:48:05;8.13;;;3.40;;
75152;SDS011;63734;45.218;36.708;2023-04-03T05:50:32;7.25;;;3.45;;
75152;SDS011;63734;45.218;36.708;2023-04-03T05:52:58;7.50;;;3.55;;
75152;SDS011;63734;45.218;36.708;2023-04-03T05:55:27;6.50;;;3.13;;
75152;SDS011;63734;45.218;36.708;2023-04-03T06:01:04;7.07;;;3.60;;
75152;SDS011;63734;45.218;36.708;2023-04-03T06:03:31;8.02;;;3.70;;
75152;SDS011;63734;45.218;36.708;2023-04-03T06:05:57;6.82;;;3.15;;
75152;SDS011;63734;45.218;36.708;2023-04-03T06:08:23;6.88;;;3.97;;
75152;SDS011;63734;45.218;36.708;2023-04-03T06:10:50;7.90;;;3.17;;
75152;SDS011;63734;45.218;36.708;2023-04-03T06:13:15;8.93;;;3.95;;
75152;SDS011;63734;45.218;36.708;2023-04-03T06:15:42;8.32;;;3.15;;
75152;SDS011;63734;45.218;36.708;2023-04-03T06:18:08;6.03;;;3.30;;
75152;SDS011;63734;45.218;36.708;2023-04-03T06:20:34;9.50;;;3.72;;
75152;SDS011;63734;45.218;36.708;2023-04-03T06:23:00;9.32;;;3.08;;
75152;SDS011;63734;45.218;36.708;2023-04-03T06:25:27;6.72;;;3.60;;
75152;SDS011;63734;45.218;36.708;2023-04-03T06:27:52;4.32;;;3.00;;
75152;SDS011;63734;45.218;36.708;2023-04-03T06:30:20;7.95;;;4.00;;
75152;SDS011;63734;45.218;36.708;2023-04-03T06:32:47;8.65;;;4.28;;
75152;SDS011;63734;45.218;36.708;2023-04-03T06:35:13;8.57;;;3.03;;
75152;SDS011;63734;45.218;36.708;2023-04-03T06:37:39;5.95;;;2.63;;
75152;SDS011;63734;45.218;36.708;2023-04-03T06:40:05;5.90;;;3.08;;
75152;SDS011;63734;45.218;36.708;2023-04-03T06:42:32;6.10;;;2.75;;
75152;SDS011;63734;45.218;36.708;2023-04-03T06:45:06;7.78;;;3.40;;
75152;SDS011;63734;45.218;36.708;2023-04-03T06:47:33;8.90;;;3.40;;
75152;SDS011;63734;45.218;36.708;2023-04-03T06:49:58;7.78;;;2.95;;
75152;SDS011;63734;45.218;36.708;2023-04-03T06:52:25;9.60;;;3.42;;
75152;SDS011;63734;45.218;36.708;2023-04-03T06:55:03;7.00;;;2.88;;
75152;SDS011;63734;45.218;36.708;2023-04-03T06:57:30;7.57;;;3.42;;
75152;SDS011;63734;45.218;36.708;2023-04-03T06:59:55;9.23;;;3.67;;
75152;SDS011;63734;45.218;36.708;2023-04-03T07:02:21;5.88;;;2.80;;
75152;SDS011;63734;45.218;36.708;2023-04-03T07:04:48;13.82;;;3.42;;
75152;SDS011;63734;45.218;36.708;2023-04-03T07:07:14;14.43;;;4.10;;
75152;SDS011;63734;45.218;36.708;2023-04-03T07:09:40;6.40;;;3.97;;
75152;SDS011;63734;45.218;36.708;2023-04-03T07:12:08;8.98;;;3.88;;
75152;SDS011;63734;45.218;36.708;2023-04-03T07:14:33;7.13;;;3.53;;
75152;SDS011;63734;45.218;36.708;2023-04-03T09:56:56;4.20;;;2.00;;
75152;SDS011;63734;45.218;36.708;2023-04-03T09:59:27;9.07;;;2.67;;
75152;SDS011;63734;45.218;36.708;2023-04-03T10:01:57;7.20;;;2.33;;
75152;SDS011;63734;45.218;36.708;2023-04-03T10:04:42;5.00;;;2.55;;
75152;SDS011;63734;45.218;36.708;2023-04-03T10:09:57;3.92;;;2.10;;
75152;SDS011;63734;45.218;36.708;2023-04-03T10:12:28;7.18;;;2.58;;
75152;SDS011;63734;45.218;36.708;2023-04-03T10:14:56;5.80;;;2.58;;
75152;SDS011;63734;45.218;36.708;2023-04-03T10:17:40;7.03;;;2.05;;
75152;SDS011;63734;45.218;36.708;2023-04-03T10:23:00;6.45;;;2.40;;
75152;SDS011;63734;45.218;36.708;2023-04-03T10:25:42;6.07;;;1.95;;
75152;SDS011;63734;45.218;36.708;2023-04-03T10:45:24;7.43;;;3.17;;
75152;SDS011;63734;45.218;36.708;2023-04-03T10:51:25;10.13;;;2.97;;
75152;SDS011;63734;45.218;36.708;2023-04-03T10:55:50;6.43;;;2.35;;
75152;SDS011;63734;45.218;36.708;2023-04-03T10:58:30;6.38;;;2.70;;
75152;SDS011;63734;45.218;36.708;2023-04-03T11:01:08;13.10;;;2.95;;
75152;SDS011;63734;45.218;36.708;2023-04-03T11:03:45;6.68;;;2.20;;
75152;SDS011;63734;45.218;36.708;2023-04-03T11:06:19;5.28;;;2.13;;
75152;SDS011;63734;45.218;36.708;2023-04-03T11:11:42;7.13;;;2.55;;
75152;SDS011;63734;45.218;36.708;2023-04-03T11:14:22;5.35;;;1.98;;
75152;SDS011;63734;45.218;36.708;2023-04-03T11:16:55;7.22;;;1.95;;
75152;SDS011;63734;45.218;36.708;2023-04-03T11:22:23;9.02;;;2.40;;
75152;SDS011;63734;45.218;36.708;2023-04-03T11:27:47;4.88;;;1.60;;
75152;SDS011;63734;45.218;36.708;2023-04-03T11:35:48;9.20;;;2.30;;
75152;SDS011;63734;45.218;36.708;2023-04-03T11:38:19;5.10;;;2.40;;
75152;SDS011;63734;45.218;36.708;2023-04-03T11:40:51;4.82;;;1.88;;
75152;SDS011;63734;45.218;36.708;2023-04-03T11:43:22;5.57;;;2.47;;
75152;SDS011;63734;45.218;36.708;2023-04-03T11:46:01;4.55;;;2.50;;
75152;SDS011;63734;45.218;36.708;2023-04-03T11:50:57;2.15;;;1.60;;
75152;SDS011;63734;45.218;36.708;2023-04-03T11:53:35;3.75;;;2.03;;
75152;SDS011;63734;45.218;36.708;2023-04-03T12:01:43;9.93;;;2.35;;
75152;SDS011;63734;45.218;36.708;2023-04-03T12:04:14;4.97;;;2.42;;
75152;SDS011;63734;45.218;36.708;2023-04-03T12:06:47;7.70;;;2.55;;
75152;SDS011;63734;45.218;36.708;2023-04-03T12:14:50;5.05;;;2.08;;
75152;SDS011;63734;45.218;36.708;2023-04-03T12:17:21;5.95;;;2.08;;
75152;SDS011;63734;45.218;36.708;2023-04-03T12:19:52;6.55;;;2.65;;
75152;SDS011;63734;45.218;36.708;2023-04-03T12:22:19;4.00;;;2.00;;
75152;SDS011;63734;45.218;36.708;2023-04-03T12:24:50;5.50;;;2.42;;
75152;SDS011;63734;45.218;36.708;2023-04-03T12:29:58;6.90;;;2.15;;
75152;SDS011;63734;45.218;36.708;2023-04-03T12:46:48;6.00;;;2.10;;
75152;SDS011;63734;45.218;36.708;2023-04-03T12:51:54;7.03;;;2.33;;
75152;SDS011;63734;45.218;36.708;2023-04-03T12:54:34;8.90;;;2.58;;
75152;SDS011;63734;45.218;36.708;2023-04-03T12:59:55;7.88;;;3.08;;
75152;SDS011;63734;45.218;36.708;2023-04-03T13:04:56;6.20;;;2.92;;
75152;SDS011;63734;45.218;36.708;2023-04-03T13:07:29;6.85;;;2.72;;
75152;SDS011;63734;45.218;36.708;2023-04-03T13:09:59;5.57;;;2.58;;
75152;SDS011;63734;45.218;36.708;2023-04-03T13:12:28;9.07;;;2.60;;
75152;SDS011;63734;45.218;36.708;2023-04-03T13:14:56;8.52;;;3.10;;
75152;SDS011;63734;45.218;36.708;2023-04-03T13:17:25;5.45;;;3.20;;
75152;SDS011;63734;45.218;36.708;2023-04-03T13:19:53;6.05;;;2.80;;
75152;SDS011;63734;45.218;36.708;2023-04-03T13:24:55;8.95;;;4.40;;
75152;SDS011;63734;45.218;36.708;2023-04-03T13:27:24;9.60;;;3.53;;
75152;SDS011;63734;45.218;36.708;2023-04-03T13:29:53;21.10;;;6.43;;
75152;SDS011;63734;45.218;36.708;2023-04-03T13:32:22;12.05;;;4.72;;
75152;SDS011;63734;45.218;36.708;2023-04-03T13:34:51;8.43;;;3.38;;
75152;SDS011;63734;45.218;36.708;2023-04-03T13:37:27;9.07;;;3.70;;
75152;SDS011;63734;45.218;36.708;2023-04-03T13:42:35;8.75;;;3.65;;
75152;SDS011;63734;45.218;36.708;2023-04-03T13:47:45;9.52;;;3.50;;
75152;SDS011;63734;45.218;36.708;2023-04-03T13:52:49;5.57;;;3.30;;
75152;SDS011;63734;45.218;36.708;2023-04-03T13:58:02;6.43;;;3.55;;
75152;SDS011;63734;45.218;36.708;2023-04-03T14:00:39;9.35;;;3.00;;
75152;SDS011;63734;45.218;36.708;2023-04-03T14:06:18;5.82;;;3.38;;
75152;SDS011;63734;45.218;36.708;2023-04-03T14:08:46;7.47;;;3.53;;
75152;SDS011;63734;45.218;36.708;2023-04-03T14:11:15;7.43;;;3.15;;
75152;SDS011;63734;45.218;36.708;2023-04-03T14:13:44;9.65;;;3.53;;
75152;SDS011;63734;45.218;36.708;2023-04-03T14:16:12;6.97;;;3.45;;
75152;SDS011;63734;45.218;36.708;2023-04-03T14:18:42;8.98;;;3.65;;
75152;SDS011;63734;45.218;36.708;2023-04-03T14:21:13;5.88;;;2.35;;
75152;SDS011;63734;45.218;36.708;2023-04-03T14:23:40;6.72;;;3.05;;
75152;SDS011;63734;45.218;36.708;2023-04-03T14:26:28;9.18;;;3.22;;
75152;SDS011;63734;45.218;36.708;2023-04-03T14:28:55;6.40;;;3.47;;
75152;SDS011;63734;45.218;36.708;2023-04-03T14:31:21;12.43;;;3.63;;
75152;SDS011;63734;45.218;36.708;2023-04-03T14:33:48;7.63;;;3.50;;
75152;SDS011;63734;45.218;36.708;2023-04-03T14:36:15;5.65;;;3.58;;
75152;SDS011;63734;45.218;36.708;2023-04-03T14:38:51;8.50;;;3.90;;
75152;SDS011;63734;45.218;36.708;2023-04-03T14:41:19;8.70;;;3.85;;
75152;SDS011;63734;45.218;36.708;2023-04-03T14:43:48;10.45;;;4.03;;
75152;SDS011;63734;45.218;36.708;2023-04-03T14:46:16;12.85;;;4.22;;
75152;SDS011;63734;45.218;36.708;2023-04-03T14:48:46;7.35;;;4.10;;
75152;SDS011;63734;45.218;36.708;2023-04-03T14:51:13;5.05;;;3.22;;
75152;SDS011;63734;45.218;36.708;2023-04-03T14:53:40;8.05;;;3.67;;
75152;SDS011;63734;45.218;36.708;2023-04-03T14:56:11;7.93;;;4.03;;
75152;SDS011;63734;45.218;36.708;2023-04-03T14:58:53;8.95;;;4.18;;
75152;SDS011;63734;45.218;36.708;2023-04-03T15:01:25;10.75;;;4.43;;
75152;SDS011;63734;45.218;36.708;2023-04-03T15:03:51;12.20;;;5.43;;
75152;SDS011;63734;45.218;36.708;2023-04-03T15:06:17;11.98;;;5.38;;
75152;SDS011;63734;45.218;36.708;2023-04-03T15:08:44;11.32;;;5.20;;
75152;SDS011;63734;45.218;36.708;2023-04-03T15:11:12;10.88;;;4.63;;
75152;SDS011;63734;45.218;36.708;2023-04-03T15:13:39;11.88;;;3.70;;
75152;SDS011;63734;45.218;36.708;2023-04-03T15:16:08;7.15;;;4.10;;
75152;SDS011;63734;45.218;36.708;2023-04-03T15:18:46;13.20;;;5.07;;
75152;SDS011;63734;45.218;36.708;2023-04-03T15:21:14;6.85;;;3.72;;
75152;SDS011;63734;45.218;36.708;2023-04-03T15:23:40;9.57;;;4.82;;
75152;SDS011;63734;45.218;36.708;2023-04-03T15:26:07;8.10;;;4.03;;
75152;SDS011;63734;45.218;36.708;2023-04-03T15:28:37;8.52;;;4.13;;
75152;SDS011;63734;45.218;36.708;2023-04-03T15:31:05;11.05;;;4.65;;
75152;SDS011;63734;45.218;36.708;2023-04-03T15:33:32;8.52;;;4.35;;
75152;SDS011;63734;45.218;36.708;2023-04-03T15:35:59;13.43;;;3.83;;
75152;SDS011;63734;45.218;36.708;2023-04-03T15:38:25;9.73;;;4.60;;
75152;SDS011;63734;45.218;36.708;2023-04-03T15:40:51;13.13;;;4.38;;
75152;SDS011;63734;45.218;36.708;2023-04-03T15:43:17;10.25;;;5.03;;
75152;SDS011;63734;45.218;36.708;2023-04-03T15:45:43;12.75;;;5.07;;
75152;SDS011;63734;45.218;36.708;2023-04-03T15:48:10;9.68;;;4.70;;
75152;SDS011;63734;45.218;36.708;2023-04-03T15:50:37;6.57;;;3.45;;
75152;SDS011;63734;45.218;36.708;2023-04-03T15:53:04;9.65;;;5.03;;
75152;SDS011;63734;45.218;36.708;2023-04-03T15:55:32;11.23;;;5.57;;
75152;SDS011;63734;45.218;36.708;2023-04-03T15:57:59;9.65;;;5.25;;
75152;SDS011;63734;45.218;36.708;2023-04-03T16:00:26;9.23;;;5.28;;
75152;SDS011;63734;45.218;36.708;2023-04-03T16:02:55;16.08;;;5.60;;
75152;SDS011;63734;45.218;36.708;2023-04-03T16:05:25;10.05;;;5.68;;
75152;SDS011;63734;45.218;36.708;2023-04-03T16:07:51;13.18;;;6.47;;
75152;SDS011;63734;45.218;36.708;2023-04-03T16:10:18;11.82;;;6.20;;
75152;SDS011;63734;45.218;36.708;2023-04-03T16:12:45;15.93;;;6.22;;
75152;SDS011;63734;45.218;36.708;2023-04-03T16:15:11;16.08;;;6.68;;
75152;SDS011;63734;45.218;36.708;2023-04-03T16:17:37;13.00;;;6.47;;
75152;SDS011;63734;45.218;36.708;2023-04-03T16:20:09;17.80;;;7.55;;
75152;SDS011;63734;45.218;36.708;2023-04-03T16:22:36;14.95;;;6.75;;
75152;SDS011;63734;45.218;36.708;2023-04-03T16:25:04;11.63;;;6.40;;
75152;SDS011;63734;45.218;36.708;2023-04-03T16:27:31;13.38;;;7.28;;
75152;SDS011;63734;45.218;36.708;2023-04-03T16:29:57;11.98;;;6.65;;
75152;SDS011;63734;45.218;36.708;2023-04-03T16:32:24;15.32;;;5.63;;
75152;SDS011;63734;45.218;36.708;2023-04-03T16:34:54;15.07;;;6.50;;
75152;SDS011;63734;45.218;36.708;2023-04-03T16:37:20;11.02;;;5.93;;
75152;SDS011;63734;45.218;36.708;2023-04-03T16:39:46;12.73;;;6.90;;
75152;SDS011;63734;45.218;36.708;2023-04-03T16:42:12;16.73;;;7.32;;
75152;SDS011;63734;45.218;36.708;2023-04-03T16:44:38;11.18;;;5.93;;
75152;SDS011;63734;45.218;36.708;2023-04-03T16:47:05;15.45;;;7.55;;
75152;SDS011;63734;45.218;36.708;2023-04-03T16:49:33;12.48;;;7.32;;
75152;SDS011;63734;45.218;36.708;2023-04-03T16:52:00;15.23;;;8.50;;
75152;SDS011;63734;45.218;36.708;2023-04-03T16:54:28;14.85;;;7.40;;
75152;SDS011;63734;45.218;36.708;2023-04-03T16:56:55;19.05;;;9.75;;
75152;SDS011;63734;45.218;36.708;2023-04-03T16:59:21;17.92;;;8.00;;
75152;SDS011;63734;45.218;36.708;2023-04-03T17:01:48;17.35;;;7.30;;
75152;SDS011;63734;45.218;36.708;2023-04-03T17:04:14;12.82;;;6.50;;
75152;SDS011;63734;45.218;36.708;2023-04-03T17:06:41;21.90;;;8.48;;
75152;SDS011;63734;45.218;36.708;2023-04-03T17:09:07;15.45;;;7.45;;
75152;SDS011;63734;45.218;36.708;2023-04-03T17:11:34;15.75;;;7.95;;
75152;SDS011;63734;45.218;36.708;2023-04-03T17:14:01;23.73;;;9.98;;
75152;SDS011;63734;45.218;36.708;2023-04-03T17:16:28;16.52;;;7.82;;
75152;SDS011;63734;45.218;36.708;2023-04-03T17:18:55;22.35;;;9.95;;
75152;SDS011;63734;45.218;36.708;2023-04-03T17:21:22;22.67;;;10.20;;
75152;SDS011;63734;45.218;36.708;2023-04-03T17:23:55;16.23;;;10.68;;
75152;SDS011;63734;45.218;36.708;2023-04-03T17:26:24;23.13;;;11.15;;
75152;SDS011;63734;45.218;36.708;2023-04-03T17:28:52;21.17;;;11.85;;
75152;SDS011;63734;45.218;36.708;2023-04-03T17:31:18;30.25;;;14.30;;
75152;SDS011;63734;45.218;36.708;2023-04-03T17:33:45;26.83;;;13.52;;
75152;SDS011;63734;45.218;36.708;2023-04-03T17:36:11;22.08;;;12.15;;
75152;SDS011;63734;45.218;36.708;2023-04-03T17:38:37;25.50;;;11.75;;
75152;SDS011;63734;45.218;36.708;2023-04-03T17:41:04;15.73;;;8.77;;
75152;SDS011;63734;45.218;36.708;2023-04-03T17:43:33;25.75;;;11.98;;
75152;SDS011;63734;45.218;36.708;2023-04-03T17:46:04;25.88;;;13.25;;
75152;SDS011;63734;45.218;36.708;2023-04-03T17:48:34;18.50;;;10.32;;
75152;SDS011;63734;45.218;36.708;2023-04-03T17:51:12;19.67;;;10.13;;
75152;SDS011;63734;45.218;36.708;2023-04-03T17:53:39;21.70;;;11.38;;
75152;SDS011;63734;45.218;36.708;2023-04-03T17:56:13;19.67;;;8.80;;
75152;SDS011;63734;45.218;36.708;2023-04-03T17:58:41;26.23;;;9.93;;
75152;SDS011;63734;45.218;36.708;2023-04-03T18:04:04;21.42;;;9.52;;
75152;SDS011;63734;45.218;36.708;2023-04-03T18:06:40;26.45;;;14.02;;
75152;SDS011;63734;45.218;36.708;2023-04-03T18:09:11;26.42;;;10.80;;
75152;SDS011;63734;45.218;36.708;2023-04-03T18:11:41;18.02;;;8.52;;
75152;SDS011;63734;45.218;36.708;2023-04-03T18:14:08;17.00;;;8.98;;
75152;SDS011;63734;45.218;36.708;2023-04-03T18:16:35;19.38;;;9.82;;
75152;SDS011;63734;45.218;36.708;2023-04-03T18:19:01;19.30;;;9.23;;
75152;SDS011;63734;45.218;36.708;2023-04-03T18:21:28;27.92;;;14.45;;
75152;SDS011;63734;45.218;36.708;2023-04-03T18:23:54;22.55;;;12.43;;
75152;SDS011;63734;45.218;36.708;2023-04-03T18:26:21;23.88;;;11.27;;
75152;SDS011;63734;45.218;36.708;2023-04-03T18:28:55;25.77;;;10.02;;
75152;SDS011;63734;45.218;36.708;2023-04-03T18:31:29;23.42;;;11.30;;
75152;SDS011;63734;45.218;36.708;2023-04-03T18:33:59;16.55;;;9.45;;
75152;SDS011;63734;45.218;36.708;2023-04-03T18:36:26;22.48;;;12.68;;
75152;SDS011;63734;45.218;36.708;2023-04-03T18:38:53;25.15;;;10.70;;
75152;SDS011;63734;45.218;36.708;2023-04-03T18:41:20;23.42;;;11.48;;
75152;SDS011;63734;45.218;36.708;2023-04-03T18:43:49;25.83;;;11.77;;
75152;SDS011;63734;45.218;36.708;2023-04-03T18:46:15;23.35;;;11.95;;
75152;SDS011;63734;45.218;36.708;2023-04-03T18:48:41;17.48;;;9.50;;
75152;SDS011;63734;45.218;36.708;2023-04-03T18:51:10;20.42;;;10.70;;
75152;SDS011;63734;45.218;36.708;2023-04-03T18:53:37;17.17;;;9.63;;
75152;SDS011;63734;45.218;36.708;2023-04-03T18:56:03;26.90;;;13.13;;
75152;SDS011;63734;45.218;36.708;2023-04-03T18:58:30;23.55;;;11.52;;
75152;SDS011;63734;45.218;36.708;2023-04-03T19:00:56;24.15;;;10.02;;
75152;SDS011;63734;45.218;36.708;2023-04-03T19:03:23;19.45;;;10.18;;
75152;SDS011;63734;45.218;36.708;2023-04-03T19:05:49;18.80;;;10.23;;
75152;SDS011;63734;45.218;36.708;2023-04-03T19:08:15;21.42;;;11.05;;
75152;SDS011;63734;45.218;36.708;2023-04-03T19:10:42;24.55;;;11.77;;
75152;SDS011;63734;45.218;36.708;2023-04-03T19:13:08;19.05;;;8.52;;
75152;SDS011;63734;45.218;36.708;2023-04-03T19:15:34;21.60;;;9.68;;
75152;SDS011;63734;45.218;36.708;2023-04-03T19:18:00;22.27;;;9.85;;
75152;SDS011;63734;45.218;36.708;2023-04-03T19:20:26;27.25;;;13.82;;
75152;SDS011;63734;45.218;36.708;2023-04-03T19:22:52;19.48;;;11.45;;
75152;SDS011;63734;45.218;36.708;2023-04-03T19:25:19;33.17;;;13.85;;
75152;SDS011;63734;45.218;36.708;2023-04-03T19:27:46;26.67;;;13.52;;